Weather History for Edinburg, TX

Change the Weather History Date:

Wednesday, June 26, 2013

  Actual Average (KMFE) Record (KMFE)
Temperature  
Mean Temperature 92 °F 86 °F  
Max Temperature 102 °F 97 °F 104 °F (2012)
Min Temperature 82 °F 76 °F 62 °F (1974)
Degree Days  
Heating Degree Days 0 0  
Month to date heating degree days 0  
Since 1 June heating degree days 0  
Since 1 July heating degree days 579  
Cooling Degree Days 27 21  
Month to date cooling degree days 540  
Year to date cooling degree days 1795  
Since 1 June cooling degree days 540  
Growing Degree Days 42 (Base 50)    
Moisture  
Dew Point 70 °F    
Average Humidity 55    
Maximum Humidity 79    
Minimum Humidity 24    
Precipitation  
Precipitation 0.00 in 0.09 in 1.08 in (1973)
Month to date precipitation 2.25  
Year to date precipitation 9.03  
Sea Level Pressure  
Sea Level Pressure 29.92 in    
Wind  
Wind Speed 15 mph (SSE)    
Max Wind Speed 20 mph    
Max Gust Speed 28 mph    
Visibility 7 miles    
Events      
T = Trace of Precipitation, MM = Missing Value Source: NWS Daily Summary

Daily Weather History Graph

Daily Weather History Graph

Search for Another Location

Airport:

Trip Planner

Search our weather history database for the weather conditions in past years. The results will help you decide how hot, cold, wet, or windy it might be!

Date:

Astronomy

Jun. 26, 2013 Rise Set
Actual Time 6:41 AM CDT 8:29 PM CDT
Civil Twilight 6:15 AM CDT 8:55 PM CDT
Nautical Twilight 5:43 AM CDT 9:26 PM CDT
Astronomical Twilight 5:10 AM CDT 10:00 PM CDT
Moon 11:18 PM CDT (6/26) 10:13 AM CDT (6/26)
Length of Visible Light 14h 39m
Length of Day
13h 47m
Waning Gibbous, 85% of the Moon is Illuminated
Jun 26
Waning Gibbous
Jun 29
Last Quarter
Jul 8
New
Jul 15
First Quarter
Jul 22
Full

Hourly Weather History & Observations

Time (CDT) Temp. Heat Index Dew Point Humidity Pressure Visibility Wind Dir Wind Speed Gust Speed Precip Events Conditions
12:15 AM 83.5 °F 90.6 °F 74.3 °F 74% 29.93 in 7.0 mi SSE 17.3 mph 23.0 mph N/A   Mostly Cloudy
12:35 AM 83.5 °F 90.6 °F 74.5 °F 74% 29.93 in 7.0 mi SSE 17.3 mph 21.9 mph N/A   Overcast
12:55 AM 83.3 °F 90.5 °F 74.5 °F 75% 29.93 in 7.0 mi SSE 17.3 mph 21.9 mph N/A   Mostly Cloudy
1:15 AM 83.3 °F 90.5 °F 74.7 °F 75% 29.93 in 5.0 mi SSE 12.7 mph 23.0 mph N/A   Haze
1:55 AM 83.3 °F 90.8 °F 74.8 °F 76% 29.94 in 7.0 mi SSE 12.7 mph 18.4 mph N/A   Overcast
2:15 AM 83.3 °F 90.8 °F 74.8 °F 76% 29.94 in 7.0 mi SSE 13.8 mph - N/A   Overcast
2:35 AM 83.3 °F 90.8 °F 74.8 °F 76% 29.94 in 7.0 mi SSE 13.8 mph 19.6 mph N/A   Overcast
2:55 AM 83.3 °F 90.8 °F 74.8 °F 76% 29.94 in 7.0 mi SSE 12.7 mph 17.3 mph N/A   Overcast
3:15 AM 83.5 °F 90.6 °F 74.5 °F 74% 29.93 in 7.0 mi SSE 12.7 mph 19.6 mph N/A   Mostly Cloudy
3:35 AM 83.5 °F 90.6 °F 74.5 °F 74% 29.93 in 7.0 mi SSE 11.5 mph - N/A   Mostly Cloudy
3:55 AM 83.3 °F 90.5 °F 74.5 °F 75% 29.93 in 7.0 mi SSE 13.8 mph 19.6 mph N/A   Mostly Cloudy
4:35 AM 82.8 °F 89.8 °F 74.8 °F 77% 29.93 in 7.0 mi SSE 12.7 mph - N/A   Scattered Clouds
4:55 AM 82.4 °F 89.2 °F 75.0 °F 78% 29.93 in 7.0 mi SSE 10.4 mph 16.1 mph N/A   Scattered Clouds
5:15 AM 82.4 °F 89.5 °F 75.2 °F 79% 29.93 in 7.0 mi SSE 10.4 mph 17.3 mph N/A   Clear
5:35 AM 82.4 °F 89.5 °F 75.2 °F 79% 29.93 in 7.0 mi SSE 12.7 mph - N/A   Scattered Clouds
5:55 AM 82.4 °F 89.5 °F 75.2 °F 79% 29.92 in 7.0 mi SSE 10.4 mph - N/A   Mostly Cloudy
6:15 AM 82.4 °F 89.5 °F 75.2 °F 79% 29.93 in 7.0 mi SSE 9.2 mph - N/A   Mostly Cloudy
6:35 AM 82.8 °F 89.5 °F 74.5 °F 76% 29.92 in 7.0 mi SSE 9.2 mph 16.1 mph N/A   Mostly Cloudy
6:55 AM 82.9 °F 89.9 °F 74.7 °F 76% 29.93 in 5.0 mi SSE 9.2 mph - N/A   Haze
7:15 AM 83.3 °F 90.5 °F 74.5 °F 75% 29.93 in 5.0 mi SSE 12.7 mph 19.6 mph N/A   Haze
7:35 AM 83.5 °F 90.9 °F 74.7 °F 75% 29.94 in 5.0 mi SSE 10.4 mph - N/A   Haze
7:55 AM 83.7 °F 90.7 °F 74.3 °F 73% 29.94 in 5.0 mi SSE 15.0 mph - N/A   Haze
8:15 AM 84.4 °F 92.0 °F 74.5 °F 72% 29.94 in 5.0 mi SSE 12.7 mph - N/A   Haze
8:35 AM 84.6 °F 92.1 °F 74.3 °F 71% 29.94 in 5.0 mi SSE 13.8 mph 19.6 mph N/A   Haze
8:55 AM 86.7 °F 94.6 °F 73.8 °F 65% 29.94 in 5.0 mi SSE 13.8 mph 21.9 mph N/A   Haze
9:15 AM 87.6 °F 95.7 °F 73.4 °F 63% 29.94 in 5.0 mi SSE 17.3 mph 23.0 mph N/A   Haze
9:55 AM 89.4 °F 95.8 °F 71.4 °F 55% 29.93 in 4.0 mi SSE 18.4 mph 25.3 mph N/A   Haze
10:15 AM 90.9 °F 97.3 °F 70.9 °F 52% 29.92 in 5.0 mi SSE 19.6 mph 24.2 mph N/A   Haze
10:35 AM 92.3 °F 96.5 °F 68.4 °F 45% 29.92 in 5.0 mi SSE 17.3 mph 26.5 mph N/A   Haze
10:55 AM 93.7 °F 97.7 °F 67.3 °F 42% 29.92 in 5.0 mi South 15.0 mph 24.2 mph N/A   Haze
11:15 AM 94.8 °F 97.6 °F 65.8 °F 38% 29.92 in 7.0 mi SSE 19.6 mph 26.5 mph N/A   Clear
11:35 AM 95.9 °F 98.5 °F 64.8 °F 36% 29.93 in 7.0 mi SSE 19.6 mph 26.5 mph N/A   Clear
11:55 AM 96.8 °F 99.0 °F 64.0 °F 34% 29.93 in 7.0 mi South 16.1 mph 27.6 mph N/A   Clear
12:15 PM 97.5 °F 100.8 °F 65.3 °F 35% 29.93 in 7.0 mi SSE 17.3 mph 26.5 mph N/A   Clear
12:35 PM 97.9 °F 100.9 °F 64.8 °F 34% 29.92 in 7.0 mi SE 12.7 mph 23.0 mph N/A   Clear
12:55 PM 98.6 °F 101.6 °F 64.9 °F 33% 29.91 in 7.0 mi SE 15.0 mph 26.5 mph N/A   Clear
1:15 PM 99.1 °F 102.6 °F 65.3 °F 33% 29.91 in 7.0 mi SSE 12.7 mph 24.2 mph N/A   Clear
1:35 PM 99.7 °F 102.9 °F 64.8 °F 32% 29.91 in 7.0 mi SSE 15.0 mph 26.5 mph N/A   Clear
1:55 PM 99.9 °F 102.7 °F 64.4 °F 31% 29.91 in 5.0 mi SSE 13.8 mph 27.6 mph N/A   Haze
2:15 PM 100.4 °F 103.0 °F 63.5 °F 30% 29.90 in 7.0 mi SSE 17.3 mph 21.9 mph N/A   Clear
2:35 PM 101.1 °F 103.0 °F 62.2 °F 28% 29.90 in 7.0 mi SSE 18.4 mph 25.3 mph N/A   Clear
2:55 PM 101.5 °F 102.4 °F 60.8 °F 26% 29.89 in 7.0 mi South 16.1 mph 23.0 mph N/A   Clear
3:15 PM 102.2 °F 102.4 °F 59.4 °F 24% 29.89 in 7.0 mi South 16.1 mph 25.3 mph N/A   Clear
3:35 PM 102.2 °F 102.4 °F 58.8 °F 24% 29.88 in 7.0 mi SSE 15.0 mph 24.2 mph N/A   Clear
3:55 PM 102.2 °F 102.4 °F 59.2 °F 24% 29.87 in 7.0 mi SE 18.4 mph 27.6 mph N/A   Clear
4:15 PM 101.3 °F 102.7 °F 61.7 °F 27% 29.87 in 7.0 mi SE 16.1 mph 25.3 mph N/A   Clear
4:35 PM 100.2 °F 102.7 °F 63.3 °F 30% 29.87 in 7.0 mi SSE 16.1 mph 23.0 mph N/A   Clear
4:55 PM 100.4 °F 102.4 °F 62.8 °F 29% 29.87 in 7.0 mi ESE 17.3 mph 25.3 mph N/A   Clear
5:15 PM 99.7 °F 101.2 °F 62.1 °F 29% 29.87 in 10.0 mi South 17.3 mph 23.0 mph N/A   Clear
5:35 PM 99.1 °F 102.0 °F 64.2 °F 32% 29.87 in 7.0 mi SE 19.6 mph 24.2 mph N/A   Clear
5:55 PM 98.6 °F 101.0 °F 64.2 °F 32% 29.87 in 7.0 mi SE 17.3 mph 23.0 mph N/A   Clear
6:15 PM 97.5 °F 100.8 °F 65.3 °F 35% 29.87 in 7.0 mi SE 19.6 mph 25.3 mph N/A   Clear
6:35 PM 97.0 °F 101.0 °F 66.6 °F 37% 29.86 in 7.0 mi SE 16.1 mph 26.5 mph N/A   Clear
6:55 PM 95.7 °F 99.2 °F 66.4 °F 38% 29.86 in 5.0 mi SE 19.6 mph 26.5 mph N/A   Haze
7:15 PM 94.6 °F 98.9 °F 67.8 °F 41% 29.87 in 7.0 mi SSE 16.1 mph 23.0 mph N/A   Clear
7:35 PM 93.2 °F 98.8 °F 69.8 °F 46% 29.87 in 7.0 mi SE 19.6 mph 23.0 mph N/A   Clear
7:55 PM 91.6 °F 97.2 °F 70.0 °F 49% 29.88 in 5.0 mi SE 17.3 mph 26.5 mph N/A   Haze
8:35 PM 88.9 °F 94.7 °F 71.1 °F 55% 29.90 in 7.0 mi SE 18.4 mph 23.0 mph N/A   Clear
8:55 PM 87.8 °F 93.8 °F 71.6 °F 58% 29.90 in 7.0 mi SE 15.0 mph 18.4 mph N/A   Clear
9:15 PM 86.7 °F 92.9 °F 72.0 °F 61% 29.90 in 10.0 mi SE 12.7 mph 21.9 mph N/A   Clear
9:35 PM 85.8 °F 91.8 °F 72.0 °F 63% 29.91 in 7.0 mi SE 13.8 mph - N/A   Clear
9:55 PM 85.1 °F 91.1 °F 72.1 °F 65% 29.93 in 7.0 mi SE 16.1 mph - N/A   Clear
10:15 PM 84.2 °F 90.3 °F 72.5 °F 68% 29.94 in 7.0 mi SE 10.4 mph 17.3 mph N/A   Clear
10:35 PM 83.7 °F 89.4 °F 72.5 °F 69% 29.94 in 5.0 mi SE 12.7 mph - N/A   Haze
10:55 PM 83.3 °F 89.0 °F 72.7 °F 70% 29.95 in 7.0 mi SE 11.5 mph - N/A   Scattered Clouds
11:15 PM 83.3 °F 89.0 °F 72.7 °F 70% 29.96 in 7.0 mi SSE 12.7 mph 21.9 mph N/A   Scattered Clouds
11:35 PM 82.6 °F 88.1 °F 72.7 °F 72% 29.96 in 7.0 mi SE 12.7 mph 19.6 mph N/A   Clear
11:55 PM 82.4 °F 87.9 °F 72.9 °F 73% 29.97 in 7.0 mi SSE 10.4 mph - N/A   Clear